createdAt,value
2019-03-08T00:02:15.949Z,21.42
2019-03-08T00:04:47.693Z,22.10
2019-03-08T00:07:18.882Z,16.90
2019-03-08T00:09:52.047Z,18.00
2019-03-08T00:12:25.357Z,19.05
2019-03-08T00:14:56.486Z,18.75
2019-03-08T00:17:33.554Z,16.52
2019-03-08T00:20:12.913Z,16.05
2019-03-08T00:22:44.564Z,18.27
2019-03-08T00:25:18.102Z,17.95
2019-03-08T00:27:49.345Z,17.23
2019-03-08T00:30:20.537Z,20.48
2019-03-08T00:32:52.700Z,15.50
2019-03-08T00:35:23.869Z,18.20
2019-03-08T00:37:58.639Z,23.95
2019-03-08T00:40:32.830Z,20.97
2019-03-08T00:43:05.744Z,15.83
2019-03-08T00:45:38.599Z,19.02
2019-03-08T00:48:09.992Z,17.37
2019-03-08T00:50:41.216Z,19.40
2019-03-08T00:53:13.168Z,18.40
2019-03-08T00:55:44.663Z,20.68
2019-03-08T00:58:15.862Z,19.05
2019-03-08T01:00:47.992Z,22.45
2019-03-08T01:03:20.915Z,21.73
2019-03-08T01:05:53.613Z,20.92
2019-03-08T01:08:24.815Z,20.17
2019-03-08T01:10:56.007Z,17.25
2019-03-08T01:13:29.267Z,18.67
2019-03-08T01:16:02.720Z,19.57
2019-03-08T01:18:37.254Z,16.87
2019-03-08T01:21:10.159Z,19.30
2019-03-08T01:23:44.962Z,16.82
2019-03-08T01:26:17.257Z,19.20
2019-03-08T01:28:48.840Z,18.82
2019-03-08T01:31:21.688Z,18.67
2019-03-08T01:33:53.872Z,18.95
2019-03-08T01:36:26.831Z,19.27
2019-03-08T01:38:58.846Z,18.95
2019-03-08T01:41:32.559Z,17.57
2019-03-08T01:44:06.703Z,19.70
2019-03-08T01:46:37.948Z,21.52
2019-03-08T01:49:09.631Z,18.50
2019-03-08T01:51:40.812Z,20.60
2019-03-08T01:54:12.260Z,19.65
2019-03-08T01:56:48.445Z,18.92
2019-03-08T01:59:22.533Z,21.57
2019-03-08T02:01:54.736Z,19.52
2019-03-08T02:04:27.889Z,21.42
2019-03-08T02:07:02.015Z,18.65
2019-03-08T02:09:33.431Z,21.48
2019-03-08T02:12:05.085Z,17.75
2019-03-08T02:14:36.593Z,20.10
2019-03-08T02:17:08.144Z,17.20
2019-03-08T02:19:40.970Z,20.40
2019-03-08T02:22:14.838Z,20.35
2019-03-08T02:24:46.505Z,22.60
2019-03-08T02:27:17.688Z,23.18
2019-03-08T02:29:49.897Z,22.75
2019-03-08T02:32:22.041Z,23.10
2019-03-08T02:34:55.880Z,22.37
2019-03-08T02:37:30.724Z,18.50
2019-03-08T02:40:04.637Z,19.12
2019-03-08T02:45:16.418Z,21.73
2019-03-08T02:47:48.477Z,25.00
2019-03-08T02:50:21.858Z,21.80
2019-03-08T02:52:56.184Z,23.67
2019-03-08T02:55:27.569Z,21.93
2019-03-08T02:58:01.342Z,21.75
2019-03-08T03:00:38.199Z,24.00
2019-03-08T03:03:10.820Z,19.12
2019-03-08T03:05:44.052Z,18.57
2019-03-08T03:08:16.732Z,21.68
2019-03-08T03:10:50.353Z,19.40
2019-03-08T03:13:22.675Z,27.10
2019-03-08T03:15:54.970Z,25.08
2019-03-08T03:18:26.307Z,22.48
2019-03-08T03:20:57.559Z,26.82
2019-03-08T03:23:28.766Z,23.42
2019-03-08T03:26:01.567Z,18.50
2019-03-08T03:28:34.539Z,21.17
2019-03-08T03:31:11.108Z,21.27
2019-03-08T03:33:42.201Z,20.90
2019-03-08T03:36:14.683Z,20.27
2019-03-08T03:38:48.392Z,21.82
2019-03-08T03:41:19.609Z,20.92
2019-03-08T03:43:54.876Z,24.20
2019-03-08T03:46:31.242Z,22.48
2019-03-08T03:49:09.243Z,22.58
2019-03-08T03:51:43.061Z,22.77
2019-03-08T03:54:15.323Z,27.27
2019-03-08T03:56:47.376Z,24.25
2019-03-08T03:59:21.070Z,22.00
2019-03-08T04:01:53.798Z,29.07
2019-03-08T04:04:27.751Z,26.10
2019-03-08T04:07:01.263Z,24.35
2019-03-08T04:09:32.461Z,24.45
2019-03-08T04:12:05.531Z,23.32
2019-03-08T04:14:37.982Z,25.32
2019-03-08T04:17:09.268Z,29.57
2019-03-08T04:19:40.507Z,26.65
2019-03-08T04:22:14.313Z,25.32
2019-03-08T04:24:47.369Z,24.75
2019-03-08T04:27:20.942Z,27.02
2019-03-08T04:29:52.154Z,26.82
2019-03-08T04:32:23.387Z,27.67
2019-03-08T04:34:54.594Z,25.50
2019-03-08T04:37:25.841Z,25.52
2019-03-08T04:39:57.012Z,26.80
2019-03-08T04:42:29.906Z,27.48
2019-03-08T04:45:04.713Z,26.68
2019-03-08T04:47:37.618Z,24.65
2019-03-08T04:50:11.872Z,24.85
2019-03-08T04:52:45.011Z,25.82
2019-03-08T04:55:20.888Z,27.02
2019-03-08T04:57:52.941Z,27.20
2019-03-08T05:00:27.252Z,26.62
2019-03-08T05:02:58.575Z,25.88
2019-03-08T05:05:32.561Z,25.80
2019-03-08T05:08:03.859Z,24.67
2019-03-08T05:10:36.986Z,27.55
2019-03-08T05:13:10.705Z,25.60
2019-03-08T05:15:43.464Z,26.12
2019-03-08T05:18:14.741Z,27.22
2019-03-08T05:20:46.113Z,25.12
2019-03-08T05:23:17.755Z,26.05
2019-03-08T05:25:49.123Z,24.43
2019-03-08T05:28:20.405Z,25.95
2019-03-08T05:30:55.372Z,29.52
2019-03-08T05:33:26.621Z,25.15
2019-03-08T05:35:57.835Z,26.90
2019-03-08T05:38:33.419Z,24.35
2019-03-08T05:41:04.956Z,21.82
2019-03-08T05:43:36.450Z,21.10
2019-03-08T05:46:08.044Z,22.73
2019-03-08T05:48:39.857Z,25.02
2019-03-08T05:51:12.277Z,24.60
2019-03-08T05:53:43.721Z,20.62
2019-03-08T05:56:15.820Z,22.93
2019-03-08T05:58:47.074Z,28.67
2019-03-08T06:01:18.447Z,25.48
2019-03-08T06:03:51.257Z,24.00
2019-03-08T06:06:23.659Z,22.55
2019-03-08T06:08:55.487Z,24.25
2019-03-08T06:11:26.674Z,24.35
2019-03-08T06:13:57.874Z,31.40
2019-03-08T06:16:30.084Z,25.02
2019-03-08T06:19:01.386Z,24.60
2019-03-08T06:21:34.795Z,24.55
2019-03-08T06:24:05.990Z,29.82
2019-03-08T06:26:38.796Z,24.45
2019-03-08T06:29:10.423Z,25.37
2019-03-08T06:31:42.004Z,22.10
2019-03-08T06:34:15.652Z,26.40
2019-03-08T06:36:53.110Z,22.73
2019-03-08T06:39:25.902Z,24.43
2019-03-08T06:41:58.445Z,23.15
2019-03-08T06:44:33.326Z,25.08
2019-03-08T06:47:07.516Z,24.25
2019-03-08T06:49:40.891Z,21.97
2019-03-08T06:52:15.281Z,27.55
2019-03-08T06:54:48.400Z,28.70
2019-03-08T06:57:20.491Z,22.27
2019-03-08T06:59:56.913Z,22.17
2019-03-08T07:02:30.287Z,20.30
2019-03-08T07:05:04.717Z,19.05
2019-03-08T07:07:39.083Z,23.42
2019-03-08T07:10:10.475Z,21.82
2019-03-08T07:12:42.160Z,24.57
2019-03-08T07:15:16.133Z,20.95
2019-03-08T07:17:47.943Z,20.32
2019-03-08T07:20:24.786Z,19.80
2019-03-08T07:23:12.893Z,22.45
2019-03-08T07:26:03.937Z,18.92
2019-03-08T07:28:41.510Z,21.20
2019-03-08T07:31:29.547Z,21.87
2019-03-08T07:34:14.359Z,20.12
2019-03-08T07:36:50.915Z,20.82
2019-03-08T07:39:41.709Z,21.30
2019-03-08T07:42:27.698Z,25.70
2019-03-08T07:45:11.245Z,23.47
2019-03-08T07:48:02.843Z,18.70
2019-03-08T07:50:38.694Z,25.05
2019-03-08T07:53:23.352Z,23.45
2019-03-08T07:56:03.717Z,25.80
2019-03-08T07:58:40.213Z,23.45
2019-03-08T08:01:13.370Z,23.27
2019-03-08T08:03:53.524Z,23.95
2019-03-08T08:06:32.368Z,23.10
2019-03-08T08:09:09.982Z,28.52
2019-03-08T08:11:58.064Z,27.17
2019-03-08T08:14:39.389Z,28.80
2019-03-08T08:17:16.078Z,28.80
2019-03-08T08:19:49.048Z,20.25
2019-03-08T08:22:23.939Z,23.83
2019-03-08T08:25:13.822Z,24.65
2019-03-08T08:27:49.406Z,23.00
2019-03-08T08:30:22.355Z,27.55
2019-03-08T08:33:13.418Z,22.85
2019-03-08T08:38:21.397Z,22.35
2019-03-08T08:41:06.539Z,22.22
2019-03-08T08:43:40.435Z,24.12
2019-03-08T08:46:13.308Z,25.65
2019-03-08T08:48:46.594Z,21.55
2019-03-08T08:51:26.664Z,22.65
2019-03-08T08:54:03.044Z,25.70
2019-03-08T08:56:52.178Z,21.77
2019-03-08T08:59:34.579Z,21.35
2019-03-08T09:02:17.353Z,25.15
2019-03-08T09:05:01.153Z,27.98
2019-03-08T09:07:53.649Z,24.75
2019-03-08T09:10:43.759Z,25.12
2019-03-08T09:13:24.220Z,23.37
2019-03-08T09:15:58.681Z,27.10
2019-03-08T09:18:38.025Z,28.85
2019-03-08T09:21:29.394Z,20.90
2019-03-08T09:24:11.381Z,26.12
2019-03-08T09:26:50.631Z,27.58
2019-03-08T09:29:41.194Z,20.32
2019-03-08T09:32:12.045Z,22.05
2019-03-08T09:34:45.490Z,21.35
2019-03-08T09:37:35.440Z,23.05
2019-03-08T09:40:12.923Z,21.85
2019-03-08T09:42:45.913Z,26.52
2019-03-08T09:45:18.927Z,22.52
2019-03-08T09:49:42.991Z,26.75
2019-03-08T09:52:16.785Z,22.20
2019-03-08T09:54:49.648Z,24.10
2019-03-08T09:57:38.732Z,17.67
2019-03-08T10:00:14.322Z,21.87
2019-03-08T10:02:57.074Z,22.42
2019-03-08T10:05:29.891Z,28.47
2019-03-08T10:08:18.843Z,26.05
2019-03-08T10:10:54.082Z,23.38
2019-03-08T10:13:32.082Z,28.32
2019-03-08T10:16:04.905Z,23.65
2019-03-08T10:18:43.811Z,25.35
2019-03-08T10:21:25.442Z,25.60
2019-03-08T10:23:58.317Z,18.75
2019-03-08T10:26:47.554Z,19.77
2019-03-08T10:29:26.460Z,21.55
2019-03-08T10:32:03.937Z,24.30
2019-03-08T10:34:36.777Z,21.73
2019-03-08T10:37:19.895Z,29.95
2019-03-08T10:39:55.471Z,25.27
2019-03-08T10:42:29.380Z,21.30
2019-03-08T10:45:20.716Z,22.62
2019-03-08T10:47:59.624Z,20.72
2019-03-08T10:50:32.946Z,21.77
2019-03-08T10:53:09.438Z,20.62
2019-03-08T10:55:54.206Z,20.32
2019-03-08T10:58:36.122Z,20.12
2019-03-08T11:03:34.971Z,20.52
2019-03-08T11:06:09.161Z,21.70
2019-03-08T11:08:42.091Z,22.70
2019-03-08T11:11:21.910Z,17.20
2019-03-08T11:14:11.055Z,21.25
2019-03-08T11:16:46.898Z,19.70
2019-03-08T11:19:27.570Z,21.17
2019-03-08T11:22:00.026Z,28.60
2019-03-08T11:24:33.829Z,20.05
2019-03-08T11:27:09.393Z,21.70
2019-03-08T11:29:43.229Z,21.62
2019-03-08T11:32:24.893Z,26.62
2019-03-08T11:35:03.513Z,23.47
2019-03-08T11:37:36.366Z,29.00
2019-03-08T11:40:12.507Z,22.67
2019-03-08T11:42:52.031Z,22.52
2019-03-08T11:45:26.321Z,24.35
2019-03-08T11:48:06.584Z,25.08
2019-03-08T11:50:57.389Z,26.85
2019-03-08T11:53:30.249Z,22.93
2019-03-08T11:56:21.401Z,25.72
2019-03-08T11:58:57.180Z,24.98
2019-03-08T12:01:30.023Z,24.72
2019-03-08T12:04:02.852Z,34.92
2019-03-08T12:06:39.047Z,29.05
2019-03-08T12:09:32.300Z,31.70
2019-03-08T12:12:08.635Z,29.37
2019-03-08T12:14:47.672Z,29.05
2019-03-08T12:17:23.959Z,28.83
2019-03-08T12:20:02.654Z,25.15
2019-03-08T12:22:37.075Z,26.05
2019-03-08T12:25:19.457Z,23.55
2019-03-08T12:28:10.321Z,30.55
2019-03-08T12:31:01.212Z,26.07
2019-03-08T12:36:08.967Z,28.83
2019-03-08T12:38:41.981Z,27.62
2019-03-08T12:41:14.794Z,27.20
2019-03-08T12:43:48.079Z,35.25
2019-03-08T12:46:34.445Z,35.17
2019-03-08T12:49:07.354Z,33.28
2019-03-08T12:51:46.013Z,30.43
2019-03-08T12:54:21.809Z,27.95
2019-03-08T12:57:03.843Z,26.40
2019-03-08T12:59:36.706Z,28.12
2019-03-08T13:02:18.553Z,28.02
2019-03-08T13:05:03.619Z,27.45
2019-03-08T13:07:54.708Z,31.52
2019-03-08T13:12:57.535Z,28.07
2019-03-08T13:15:28.813Z,27.62
2019-03-08T13:18:00.025Z,32.50
2019-03-08T13:20:31.320Z,35.40
2019-03-08T13:23:02.708Z,31.65
2019-03-08T13:25:34.029Z,35.80
2019-03-08T13:28:05.380Z,30.82
2019-03-08T13:30:36.616Z,32.48
2019-03-08T13:33:07.788Z,35.92
2019-03-08T13:35:39.449Z,33.18
2019-03-08T13:38:10.645Z,42.90
2019-03-08T13:40:41.907Z,38.17
2019-03-08T13:43:13.078Z,37.63
2019-03-08T13:45:44.405Z,43.28
2019-03-08T13:48:15.958Z,33.73
2019-03-08T13:52:30.117Z,39.25
2019-03-08T13:55:01.359Z,36.17
2019-03-08T13:57:32.672Z,33.78
2019-03-08T14:00:06.429Z,36.77
2019-03-08T14:02:37.729Z,37.40
2019-03-08T14:05:09.275Z,36.70
2019-03-08T14:07:40.683Z,35.78
2019-03-08T14:10:22.877Z,40.28
2019-03-08T14:12:54.265Z,37.00
2019-03-08T14:15:25.734Z,38.65
2019-03-08T14:17:58.176Z,41.90
2019-03-08T14:20:29.583Z,39.50
2019-03-08T14:23:00.908Z,44.65
2019-03-08T14:25:33.692Z,41.65
2019-03-08T14:28:05.023Z,37.67
2019-03-08T14:30:45.159Z,40.73
2019-03-08T14:33:16.915Z,38.73
2019-03-08T14:35:49.694Z,39.85
2019-03-08T14:38:20.944Z,36.53
2019-03-08T14:40:57.422Z,34.67
2019-03-08T14:43:31.505Z,28.98
2019-03-08T14:46:13.152Z,37.30
2019-03-08T14:48:46.352Z,32.45
2019-03-08T14:51:17.662Z,35.92
2019-03-08T14:53:48.850Z,33.35
2019-03-08T14:56:21.558Z,33.78
2019-03-08T14:58:52.829Z,35.70
2019-03-08T15:01:24.079Z,30.43
2019-03-08T15:03:56.638Z,35.20
2019-03-08T15:06:30.246Z,33.45
2019-03-08T15:09:03.223Z,34.00
2019-03-08T15:11:37.687Z,35.55
2019-03-08T15:14:09.040Z,41.90
2019-03-08T15:16:40.355Z,36.90
2019-03-08T15:19:12.226Z,35.25
2019-03-08T15:21:48.381Z,38.05
2019-03-08T15:24:16.767Z,39.80
2019-03-08T15:26:48.017Z,34.70
2019-03-08T15:29:19.387Z,33.78
2019-03-08T15:31:50.659Z,34.48
2019-03-08T15:34:23.070Z,35.65
2019-03-08T15:36:54.336Z,32.23
2019-03-08T15:39:25.590Z,36.08
2019-03-08T15:41:58.601Z,42.20
2019-03-08T15:44:29.893Z,32.35
2019-03-08T15:47:01.067Z,34.73
2019-03-08T15:49:32.473Z,37.00
2019-03-08T15:52:07.604Z,32.48
2019-03-08T15:54:39.098Z,38.50
2019-03-08T15:57:10.373Z,35.28
2019-03-08T15:59:41.552Z,40.17
2019-03-08T16:02:12.817Z,39.92
2019-03-08T16:04:45.932Z,41.58
2019-03-08T16:07:19.105Z,35.88
2019-03-08T16:09:50.102Z,42.25
2019-03-08T16:12:21.329Z,40.08
2019-03-08T16:14:52.837Z,43.08
2019-03-08T16:17:24.052Z,38.35
2019-03-08T16:19:58.893Z,48.68
2019-03-08T16:22:29.804Z,49.40
2019-03-08T16:25:01.319Z,48.85
2019-03-08T16:27:32.771Z,42.30
2019-03-08T16:30:10.706Z,45.43
2019-03-08T16:32:43.574Z,51.55
2019-03-08T16:35:14.905Z,47.83
2019-03-08T16:37:47.855Z,43.00
2019-03-08T16:40:23.745Z,45.45
2019-03-08T16:43:03.743Z,43.78
2019-03-08T16:45:38.106Z,47.73
2019-03-08T16:48:13.794Z,43.15
2019-03-08T16:50:49.308Z,42.70
2019-03-08T16:53:22.088Z,41.42
2019-03-08T16:56:04.645Z,34.03
2019-03-08T16:58:49.789Z,37.33
2019-03-08T17:01:39.152Z,28.80
2019-03-08T17:04:20.985Z,29.63
2019-03-08T17:06:59.851Z,39.45
2019-03-08T17:09:45.564Z,27.17
2019-03-08T17:12:34.940Z,28.40
2019-03-08T17:15:08.825Z,33.15
2019-03-08T17:17:57.986Z,28.15
2019-03-08T17:20:39.655Z,26.37
2019-03-08T17:23:18.434Z,28.55
2019-03-08T17:25:51.251Z,24.75
2019-03-08T17:28:24.202Z,23.77
2019-03-08T17:31:03.026Z,22.22
2019-03-08T17:33:38.967Z,19.02
2019-03-08T17:36:27.833Z,20.85
2019-03-08T17:39:03.074Z,24.85
2019-03-08T17:41:46.803Z,22.60
2019-03-08T17:44:25.636Z,17.27
2019-03-08T17:47:14.994Z,16.93
2019-03-08T17:49:47.846Z,15.48
2019-03-08T17:52:26.551Z,17.32
2019-03-08T17:55:11.381Z,14.73
2019-03-08T17:57:47.202Z,18.23
2019-03-08T18:00:26.004Z,15.85
2019-03-08T18:02:59.172Z,21.07
2019-03-08T18:05:32.044Z,17.62
2019-03-08T18:08:13.464Z,22.58
2019-03-08T18:10:47.831Z,21.57
2019-03-08T18:13:20.680Z,27.30
2019-03-08T18:15:53.526Z,26.10
2019-03-08T18:18:49.229Z,29.63
2019-03-08T18:21:33.940Z,36.03
2019-03-08T18:24:07.056Z,40.40
2019-03-08T18:26:54.987Z,32.55
2019-03-08T18:29:36.873Z,28.10
2019-03-08T18:32:16.600Z,22.65
2019-03-08T18:34:59.238Z,26.93
2019-03-08T18:37:32.133Z,23.40
2019-03-08T18:40:24.472Z,25.80
2019-03-08T18:43:00.161Z,30.85
2019-03-08T18:45:36.616Z,26.85
2019-03-08T18:48:27.518Z,31.05
2019-03-08T18:51:01.624Z,30.10
2019-03-08T18:53:34.780Z,29.98
2019-03-08T18:56:07.562Z,30.35
2019-03-08T18:58:41.408Z,29.80
2019-03-08T19:01:30.533Z,33.23
2019-03-08T19:04:10.319Z,34.30
2019-03-08T19:06:57.769Z,35.45
2019-03-08T19:09:30.611Z,37.15
2019-03-08T19:12:20.452Z,35.80
2019-03-08T19:15:05.209Z,34.53
2019-03-08T19:17:49.740Z,32.42
2019-03-08T19:20:31.570Z,37.65
2019-03-08T19:23:04.456Z,42.45
2019-03-08T19:25:49.405Z,45.90
2019-03-08T19:28:38.796Z,41.68
2019-03-08T19:31:15.425Z,42.53
2019-03-08T19:33:48.273Z,44.42
2019-03-08T19:36:28.263Z,46.18
2019-03-08T19:39:01.033Z,41.75
2019-03-08T19:41:41.141Z,43.02
2019-03-08T19:44:21.826Z,40.03
2019-03-08T19:46:54.731Z,43.98
2019-03-08T19:49:43.662Z,38.78
2019-03-08T19:52:34.510Z,37.03
2019-03-08T19:55:10.883Z,34.85
2019-03-08T19:58:00.265Z,34.43
2019-03-08T20:00:33.105Z,35.73
2019-03-08T20:03:05.930Z,34.35
2019-03-08T20:05:41.435Z,36.55
2019-03-08T20:08:16.624Z,40.65
2019-03-08T20:11:01.774Z,35.40
2019-03-08T20:13:34.719Z,37.28
2019-03-08T20:16:19.535Z,39.78
2019-03-08T20:19:10.702Z,35.63
2019-03-08T20:24:17.141Z,43.02
2019-03-08T20:26:49.922Z,43.10
2019-03-08T20:29:26.637Z,47.55
2019-03-08T20:32:08.871Z,47.15
2019-03-08T20:34:57.913Z,44.73
2019-03-08T20:37:33.578Z,44.13
2019-03-08T20:40:13.810Z,44.30
2019-03-08T20:42:49.350Z,37.95
2019-03-08T20:45:37.708Z,39.92
2019-03-08T20:48:08.935Z,46.88
2019-03-08T20:50:40.170Z,40.70
2019-03-08T20:53:12.433Z,42.23
2019-03-08T20:55:44.088Z,39.80
2019-03-08T20:58:15.317Z,37.33
2019-03-08T21:00:46.524Z,38.58
2019-03-08T21:03:17.857Z,36.85
2019-03-08T21:05:50.757Z,35.55
2019-03-08T21:08:22.076Z,36.42
2019-03-08T21:10:53.343Z,35.33
2019-03-08T21:13:24.559Z,32.75
2019-03-08T21:15:55.963Z,35.58
2019-03-08T21:18:27.467Z,33.98
2019-03-08T21:20:58.733Z,30.32
2019-03-08T21:23:30.418Z,30.82
2019-03-08T21:26:01.684Z,33.42
2019-03-08T21:28:32.963Z,25.08
2019-03-08T21:31:04.323Z,28.20
2019-03-08T21:33:35.579Z,25.35
2019-03-08T21:36:06.874Z,25.92
2019-03-08T21:38:38.351Z,28.67
2019-03-08T21:41:12.039Z,26.45
2019-03-08T21:43:43.311Z,27.67
2019-03-08T21:46:14.551Z,27.82
2019-03-08T21:48:45.801Z,26.73
2019-03-08T21:51:19.192Z,25.37
2019-03-08T21:53:50.404Z,24.30
2019-03-08T21:56:21.826Z,26.35
2019-03-08T21:58:54.053Z,31.12
2019-03-08T22:01:25.301Z,31.25
2019-03-08T22:04:03.965Z,28.95
2019-03-08T22:06:36.026Z,27.00
2019-03-08T22:09:08.873Z,23.80
2019-03-08T22:11:43.743Z,24.43
2019-03-08T22:14:16.592Z,29.32
2019-03-08T22:16:48.823Z,31.87
2019-03-08T22:19:20.076Z,28.92
2019-03-08T22:21:51.392Z,30.57
2019-03-08T22:24:22.640Z,28.60
2019-03-08T22:26:54.017Z,28.27
2019-03-08T22:29:25.387Z,32.05
2019-03-08T22:31:56.646Z,32.08
2019-03-08T22:34:28.006Z,25.40
2019-03-08T22:36:59.316Z,24.30
2019-03-08T22:39:30.522Z,28.32
2019-03-08T22:42:01.832Z,33.20
2019-03-08T22:44:33.149Z,27.87
2019-03-08T22:47:04.462Z,24.45
2019-03-08T22:49:35.646Z,21.82
2019-03-08T22:52:06.915Z,28.40
2019-03-08T22:54:38.061Z,27.58
2019-03-08T22:57:09.373Z,32.75
2019-03-08T22:59:40.561Z,28.45
2019-03-08T23:02:11.771Z,29.32
2019-03-08T23:04:42.958Z,26.90
2019-03-08T23:07:14.025Z,26.33
2019-03-08T23:12:15.499Z,26.15
2019-03-08T23:14:47.678Z,28.20
2019-03-08T23:17:18.904Z,26.00
2019-03-08T23:19:50.350Z,28.55
2019-03-08T23:22:22.635Z,28.47
2019-03-08T23:24:53.766Z,29.87
2019-03-08T23:27:29.315Z,27.35
2019-03-08T23:30:01.132Z,31.80
2019-03-08T23:32:35.104Z,25.85
2019-03-08T23:35:07.431Z,26.68
2019-03-08T23:37:38.607Z,27.52
2019-03-08T23:40:09.882Z,24.57
2019-03-08T23:45:12.904Z,36.28
2019-03-08T23:47:44.147Z,26.00
2019-03-08T23:50:15.313Z,28.65
2019-03-08T23:52:48.159Z,28.50
2019-03-08T23:55:20.318Z,29.63
2019-03-08T23:57:51.513Z,25.45
